createdAt,value
2015-12-01T00:00:18.136Z,10.5
2015-12-01T00:01:18.076Z,10.5
2015-12-01T00:02:18.016Z,10.5
2015-12-01T00:03:17.972Z,10.5
2015-12-01T00:04:17.928Z,10.5
2015-12-01T00:05:17.868Z,10.5
2015-12-01T00:06:17.811Z,10.6
2015-12-01T00:07:17.750Z,10.5
2015-12-01T00:08:17.703Z,10.5
2015-12-01T00:09:17.644Z,10.5
2015-12-01T00:10:17.584Z,10.5
2015-12-01T00:11:17.541Z,10.5
2015-12-01T00:12:17.481Z,10.5
2015-12-01T00:13:17.438Z,10.5
2015-12-01T00:14:17.379Z,10.5
2015-12-01T00:15:17.332Z,10.6
2015-12-01T00:16:17.271Z,10.7
2015-12-01T00:17:17.227Z,10.6
2015-12-01T00:18:17.168Z,10.6
2015-12-01T00:19:17.108Z,10.7
2015-12-01T00:20:17.065Z,10.6
2015-12-01T00:21:17.006Z,10.7
2015-12-01T00:22:16.947Z,10.8
2015-12-01T00:23:16.900Z,10.8
2015-12-01T00:24:16.840Z,10.8
2015-12-01T00:25:16.781Z,10.9
2015-12-01T00:26:16.737Z,10.8
2015-12-01T00:27:16.676Z,10.9
2015-12-01T00:28:16.617Z,10.9
2015-12-01T00:29:16.574Z,11
2015-12-01T00:30:16.514Z,11
2015-12-01T00:31:16.470Z,11
2015-12-01T00:32:16.410Z,11
2015-12-01T00:33:16.367Z,11
2015-12-01T00:34:16.307Z,11
2015-12-01T00:35:16.244Z,11
2015-12-01T00:36:16.201Z,11
2015-12-01T00:37:16.141Z,10.9
2015-12-01T00:38:16.080Z,10.9
2015-12-01T00:39:16.036Z,10.9
2015-12-01T00:40:15.978Z,10.9
2015-12-01T00:41:15.918Z,10.9
2015-12-01T00:42:15.876Z,10.7
2015-12-01T00:43:15.816Z,10.6
2015-12-01T00:44:15.769Z,10.5
2015-12-01T00:45:15.710Z,10.4
2015-12-01T00:46:15.649Z,10.4
2015-12-01T00:47:15.605Z,10.3
2015-12-01T00:48:15.546Z,10.4
2015-12-01T00:49:15.502Z,10.3
2015-12-01T00:50:15.443Z,10.3
2015-12-01T00:51:15.384Z,10.2
2015-12-01T00:52:15.321Z,10.2
2015-12-01T00:53:15.278Z,10.2
2015-12-01T00:54:15.218Z,10.1
2015-12-01T00:55:15.158Z,10.1
2015-12-01T00:56:15.114Z,10.1
2015-12-01T00:57:15.055Z,10.1
2015-12-01T00:58:15.012Z,10
2015-12-01T00:59:14.953Z,10
2015-12-01T01:00:14.890Z,10
2015-12-01T01:01:14.846Z,10
2015-12-01T01:02:14.786Z,10
2015-12-01T01:03:14.726Z,9.9
2015-12-01T01:04:14.682Z,9.8
2015-12-01T01:05:14.623Z,9.8
2015-12-01T01:06:14.580Z,9.7
2015-12-01T01:07:14.521Z,9.7
2015-12-01T01:08:14.458Z,9.6
2015-12-01T01:09:14.399Z,9.6
2015-12-01T01:10:14.339Z,9.5
2015-12-01T01:11:14.279Z,9.5
2015-12-01T01:12:14.235Z,9.4
2015-12-01T01:13:14.219Z,9.4
2015-12-01T01:14:14.136Z,9.4
2015-12-01T01:15:14.093Z,9.3
2015-12-01T01:16:15.974Z,9.3
2015-12-01T01:17:14.053Z,9.2
2015-12-01T01:18:13.931Z,9.2
2015-12-01T01:19:13.918Z,9.1
2015-12-01T01:20:14.264Z,9
2015-12-01T01:21:13.830Z,9
2015-12-01T01:22:13.728Z,9
2015-12-01T01:23:13.654Z,8.9
2015-12-01T01:24:13.577Z,8.9
2015-12-01T01:25:13.534Z,8.9
2015-12-01T01:26:13.458Z,8.9
2015-12-01T01:27:13.399Z,8.9
2015-12-01T01:28:13.354Z,8.8
2015-12-01T01:29:13.295Z,8.8
2015-12-01T01:30:13.235Z,8.8
2015-12-01T01:31:13.176Z,8.8
2015-12-01T01:32:13.132Z,8.7
2015-12-01T01:33:13.072Z,8.7
2015-12-01T01:34:13.025Z,8.7
2015-12-01T01:35:13.027Z,8.7
2015-12-01T01:36:12.906Z,8.6
2015-12-01T01:37:12.846Z,8.6
2015-12-01T01:38:12.802Z,8.6
2015-12-01T01:39:12.744Z,8.6
2015-12-01T01:40:12.684Z,8.5
2015-12-01T01:41:12.624Z,8.5
2015-12-01T01:42:12.565Z,8.5
2015-12-01T01:43:12.521Z,8.5
2015-12-01T01:44:12.461Z,8.5
2015-12-01T01:45:12.401Z,8.5
2015-12-01T01:46:12.357Z,8.5
2015-12-01T01:47:12.298Z,8.5
2015-12-01T01:48:12.254Z,8.5
2015-12-01T01:49:12.193Z,8.4
2015-12-01T01:50:12.131Z,8.4
2015-12-01T01:51:12.086Z,8.3
2015-12-01T01:52:12.011Z,8.3
2015-12-01T01:53:11.951Z,8.3
2015-12-01T01:54:11.892Z,8.2
2015-12-01T01:55:11.848Z,8.2
2015-12-01T01:56:11.787Z,8.2
2015-12-01T01:57:11.728Z,8.2
2015-12-01T01:58:11.670Z,8.2
2015-12-01T01:59:11.626Z,8.2
2015-12-01T02:00:11.563Z,8.2
2015-12-01T02:01:11.505Z,8.2
2015-12-01T02:02:11.444Z,8.2
2015-12-01T02:03:11.400Z,8.1
2015-12-01T02:04:11.340Z,8.1
2015-12-01T02:05:11.281Z,8.1
2015-12-01T02:06:11.222Z,8
2015-12-01T02:07:11.162Z,8
2015-12-01T02:08:11.102Z,8
2015-12-01T02:09:11.058Z,8
2015-12-01T02:10:10.998Z,7.9
2015-12-01T02:11:10.939Z,7.9
2015-12-01T02:12:10.878Z,7.9
2015-12-01T02:13:10.820Z,7.8
2015-12-01T02:14:10.775Z,7.8
2015-12-01T02:15:10.715Z,7.8
2015-12-01T02:16:10.656Z,7.7
2015-12-01T02:17:10.596Z,7.7
2015-12-01T02:18:10.552Z,7.7
2015-12-01T02:19:10.492Z,7.7
2015-12-01T02:20:10.432Z,7.6
2015-12-01T02:21:10.420Z,7.6
2015-12-01T02:22:10.329Z,7.5
2015-12-01T02:23:10.269Z,7.5
2015-12-01T02:24:10.209Z,7.5
2015-12-01T02:25:10.149Z,7.5
2015-12-01T02:26:10.089Z,7.4
2015-12-01T02:27:10.045Z,7.4
2015-12-01T02:28:09.985Z,7.3
2015-12-01T02:29:09.922Z,7.3
2015-12-01T02:30:09.864Z,7.3
2015-12-01T02:31:09.819Z,7.2
2015-12-01T02:32:09.759Z,7.2
2015-12-01T02:33:09.699Z,7.2
2015-12-01T02:34:09.656Z,7.2
2015-12-01T02:35:09.581Z,7.2
2015-12-01T02:36:09.567Z,7.2
2015-12-01T02:37:09.477Z,7.2
2015-12-01T02:38:09.417Z,7.2
2015-12-01T02:39:09.373Z,7.2
2015-12-01T02:40:09.314Z,7.2
2015-12-01T02:41:09.253Z,7.2
2015-12-01T02:42:09.193Z,7.1
2015-12-01T02:43:09.133Z,7.1
2015-12-01T02:44:09.075Z,7.1
2015-12-01T02:45:09.030Z,7.1
2015-12-01T02:46:08.970Z,7.1
2015-12-01T02:47:08.911Z,7.1
2015-12-01T02:48:08.867Z,7.1
2015-12-01T02:49:08.806Z,7
2015-12-01T02:50:08.763Z,7
2015-12-01T02:51:08.703Z,7
2015-12-01T02:52:08.628Z,7
2015-12-01T02:53:08.565Z,6.9
2015-12-01T02:54:08.522Z,6.9
2015-12-01T02:55:08.462Z,6.9
2015-12-01T02:56:08.403Z,6.8
2015-12-01T02:57:08.345Z,6.8
2015-12-01T02:58:08.283Z,6.8
2015-12-01T02:59:08.238Z,6.7
2015-12-01T03:00:08.178Z,6.7
2015-12-01T03:01:08.118Z,6.6
2015-12-01T03:02:08.058Z,6.6
2015-12-01T03:03:08.014Z,6.7
2015-12-01T03:04:07.957Z,6.6
2015-12-01T03:05:07.894Z,6.6
2015-12-01T03:06:07.835Z,6.6
2015-12-01T03:07:07.791Z,6.5
2015-12-01T03:08:07.731Z,6.5
2015-12-01T03:09:07.671Z,6.5
2015-12-01T03:10:07.611Z,6.6
2015-12-01T03:11:07.552Z,6.5
2015-12-01T03:12:07.508Z,6.5
2015-12-01T03:13:07.449Z,6.5
2015-12-01T03:14:07.389Z,6.5
2015-12-01T03:15:07.329Z,6.5
2015-12-01T03:16:07.285Z,6.4
2015-12-01T03:17:07.225Z,6.5
2015-12-01T03:18:07.166Z,6.4
2015-12-01T03:19:07.105Z,6.4
2015-12-01T03:20:07.061Z,6.4
2015-12-01T03:21:07.002Z,6.4
2015-12-01T03:22:06.942Z,6.4
2015-12-01T03:23:06.883Z,6.3
2015-12-01T03:24:06.823Z,6.3
2015-12-01T03:25:06.779Z,6.3
2015-12-01T03:26:06.733Z,6.3
2015-12-01T03:27:06.656Z,6.3
2015-12-01T03:28:06.597Z,6.3
2015-12-01T03:29:06.553Z,6.3
2015-12-01T03:30:06.496Z,6.4
2015-12-01T03:31:06.483Z,6.3
2015-12-01T03:32:06.377Z,6.3
2015-12-01T03:33:06.332Z,6.4
2015-12-01T03:34:06.272Z,6.4
2015-12-01T03:35:06.210Z,6.4
2015-12-01T03:36:06.150Z,6.4
2015-12-01T03:37:06.090Z,6.4
2015-12-01T03:38:06.046Z,6.5
2015-12-01T03:39:05.986Z,6.4
2015-12-01T03:40:05.926Z,6.4
2015-12-01T03:41:05.867Z,6.4
2015-12-01T03:42:05.809Z,6.5
2015-12-01T03:43:05.746Z,6.4
2015-12-01T03:44:05.687Z,6.4
2015-12-01T03:45:05.643Z,6.5
2015-12-01T03:46:05.583Z,6.5
2015-12-01T03:47:05.523Z,6.5
2015-12-01T03:48:05.463Z,6.5
2015-12-01T03:49:05.405Z,6.5
2015-12-01T03:50:05.360Z,6.5
2015-12-01T03:51:05.318Z,6.5
2015-12-01T03:52:05.242Z,6.5
2015-12-01T03:53:05.180Z,6.5
2015-12-01T03:54:05.136Z,6.5
2015-12-01T03:55:05.076Z,6.5
2015-12-01T03:56:05.016Z,6.6
2015-12-01T03:57:04.957Z,6.6
2015-12-01T03:58:04.898Z,6.6
2015-12-01T03:59:04.839Z,6.6
2015-12-01T04:00:04.782Z,6.6
2015-12-01T04:01:04.721Z,6.6
2015-12-01T04:02:04.677Z,6.5
2015-12-01T04:03:04.618Z,6.5
2015-12-01T04:04:04.558Z,6.5
2015-12-01T04:05:04.501Z,6.5
2015-12-01T04:06:04.445Z,6.5
2015-12-01T04:07:04.385Z,6.5
2015-12-01T04:08:04.341Z,6.5
2015-12-01T04:09:04.278Z,6.5
2015-12-01T04:10:04.219Z,6.5
2015-12-01T04:11:04.175Z,6.5
2015-12-01T04:12:04.114Z,6.5
2015-12-01T04:13:04.056Z,6.5
2015-12-01T04:14:03.995Z,6.5
2015-12-01T04:15:03.936Z,6.6
2015-12-01T04:16:03.878Z,6.6
2015-12-01T04:17:03.834Z,6.6
2015-12-01T04:18:03.772Z,6.6
2015-12-01T04:19:03.711Z,6.6
2015-12-01T04:20:03.651Z,6.6
2015-12-01T04:21:03.592Z,6.6
2015-12-01T04:22:03.549Z,6.7
2015-12-01T04:23:03.489Z,6.6
2015-12-01T04:24:03.431Z,6.6
2015-12-01T04:25:03.368Z,6.7
2015-12-01T04:26:03.324Z,6.6
2015-12-01T04:27:03.265Z,6.7
2015-12-01T04:28:03.205Z,6.7
2015-12-01T04:29:03.145Z,6.7
2015-12-01T04:30:03.100Z,6.7
2015-12-01T04:31:03.042Z,6.7
2015-12-01T04:32:02.984Z,6.7
2015-12-01T04:33:02.921Z,6.7
2015-12-01T04:34:02.876Z,6.8
2015-12-01T04:35:02.817Z,6.8
2015-12-01T04:36:02.757Z,6.8
2015-12-01T04:37:02.716Z,6.8
2015-12-01T04:38:02.655Z,6.8
2015-12-01T04:39:02.596Z,6.8
2015-12-01T04:40:02.536Z,6.8
2015-12-01T04:41:02.707Z,6.8
2015-12-01T04:42:02.582Z,6.8
2015-12-01T04:43:02.354Z,6.8
2015-12-01T04:44:02.283Z,6.8
2015-12-01T04:45:02.219Z,6.8
2015-12-01T04:46:02.156Z,6.8
2015-12-01T04:47:02.087Z,6.7
2015-12-01T04:48:02.039Z,6.8
2015-12-01T04:49:01.974Z,6.7
2015-12-01T04:50:01.910Z,6.8
2015-12-01T04:51:01.846Z,6.7
2015-12-01T04:52:01.800Z,6.7
2015-12-01T04:53:01.738Z,6.7
2015-12-01T04:54:01.693Z,6.7
2015-12-01T04:55:01.616Z,6.7
2015-12-01T04:56:01.554Z,6.7
2015-12-01T04:57:01.508Z,6.6
2015-12-01T04:58:01.479Z,6.6
2015-12-01T04:59:01.388Z,6.6
2015-12-01T05:00:01.328Z,6.6
2015-12-01T05:01:01.268Z,6.6
2015-12-01T05:02:01.208Z,6.6
2015-12-01T05:03:01.228Z,6.6
2015-12-01T05:04:01.544Z,6.7
2015-12-01T05:05:01.044Z,6.6
2015-12-01T05:06:00.984Z,6.6
2015-12-01T05:07:00.940Z,6.6
2015-12-01T05:08:00.879Z,6.7
2015-12-01T05:09:00.820Z,6.6
2015-12-01T05:10:00.761Z,6.7
2015-12-01T05:11:00.718Z,6.6
2015-12-01T05:12:00.657Z,6.7
2015-12-01T05:13:00.598Z,6.6
2015-12-01T05:14:00.538Z,6.7
2015-12-01T05:15:00.479Z,6.7
2015-12-01T05:16:00.434Z,6.8
2015-12-01T05:17:00.375Z,6.7
2015-12-01T05:18:00.316Z,6.7
2015-12-01T05:19:00.271Z,6.7
2015-12-01T05:20:00.210Z,6.7
2015-12-01T05:21:00.152Z,6.7
2015-12-01T05:22:00.091Z,6.7
2015-12-01T05:23:00.032Z,6.6
2015-12-01T05:23:59.988Z,6.7
2015-12-01T05:24:59.928Z,6.7
2015-12-01T05:25:59.866Z,6.6
2015-12-01T05:26:59.805Z,6.6
2015-12-01T05:27:59.762Z,6.5
2015-12-01T05:28:59.702Z,6.5
2015-12-01T05:29:59.660Z,6.5
2015-12-01T05:30:59.585Z,6.5
2015-12-01T05:31:59.541Z,6.5
2015-12-01T05:32:59.479Z,6.4
2015-12-01T05:33:59.418Z,6.5
2015-12-01T05:34:59.359Z,6.5
2015-12-01T05:35:59.299Z,6.5
2015-12-01T05:36:59.254Z,6.5
2015-12-01T05:37:59.195Z,6.6
2015-12-01T05:38:59.138Z,6.6
2015-12-01T05:39:59.076Z,6.6
2015-12-01T05:40:59.031Z,6.6
2015-12-01T05:41:58.971Z,6.5
2015-12-01T05:42:58.912Z,6.5
2015-12-01T05:43:58.867Z,6.6
2015-12-01T05:44:58.792Z,6.6
2015-12-01T05:45:58.749Z,6.6
2015-12-01T05:46:58.689Z,6.6
2015-12-01T05:47:58.629Z,6.6
2015-12-01T05:48:58.571Z,6.5
2015-12-01T05:49:58.508Z,6.5
2015-12-01T05:50:58.464Z,6.5
2015-12-01T05:51:58.405Z,6.4
2015-12-01T05:52:58.344Z,6.4
2015-12-01T05:53:58.285Z,6.3
2015-12-01T05:54:58.242Z,6.3
2015-12-01T05:55:58.182Z,6.3
2015-12-01T05:56:58.123Z,6.3
2015-12-01T05:57:58.062Z,6.3
2015-12-01T05:58:58.018Z,6.3
2015-12-01T05:59:57.959Z,6.3
2015-12-01T06:00:57.915Z,6.2
2015-12-01T06:01:57.856Z,6.1
2015-12-01T06:02:57.793Z,6.2
2015-12-01T06:03:57.734Z,6.2
2015-12-01T06:04:57.690Z,6.2
2015-12-01T06:05:57.629Z,6.2
2015-12-01T06:06:57.570Z,6.2
2015-12-01T06:07:57.512Z,6.2
2015-12-01T06:08:57.467Z,6.2
2015-12-01T06:09:57.392Z,6.2
2015-12-01T06:10:57.348Z,6.2
2015-12-01T06:11:57.288Z,6.3
2015-12-01T06:12:57.229Z,6.3
2015-12-01T06:13:57.169Z,6.3
2015-12-01T06:14:57.125Z,6.3
2015-12-01T06:15:57.065Z,6.3
2015-12-01T06:16:57.003Z,6.4
2015-12-01T06:17:56.942Z,6.4
2015-12-01T06:18:56.899Z,6.3
2015-12-01T06:19:56.839Z,6.3
2015-12-01T06:20:56.779Z,6.3
2015-12-01T06:21:56.738Z,6.3
2015-12-01T06:22:56.678Z,6.3
2015-12-01T06:23:56.631Z,6.2
2015-12-01T06:24:56.555Z,6.3
2015-12-01T06:25:56.510Z,6.3
2015-12-01T06:26:56.451Z,6.2
2015-12-01T06:27:56.392Z,6.1
2015-12-01T06:28:56.333Z,6.1
2015-12-01T06:29:56.273Z,6.1
2015-12-01T06:30:56.228Z,6.2
2015-12-01T06:31:56.170Z,6.1
2015-12-01T06:32:56.109Z,6.2
2015-12-01T06:33:56.051Z,6.1
2015-12-01T06:34:56.007Z,6.1
2015-12-01T06:35:55.945Z,6.1
2015-12-01T06:36:55.884Z,6.1
2015-12-01T06:37:55.825Z,6.1
2015-12-01T06:38:55.781Z,6.1
2015-12-01T06:39:55.720Z,6.1
2015-12-01T06:40:55.663Z,6.1
2015-12-01T06:41:55.604Z,6.1
2015-12-01T06:42:55.559Z,6.1
2015-12-01T06:43:55.497Z,6.1
2015-12-01T06:44:55.437Z,6.1
2015-12-01T06:45:55.392Z,6.1
2015-12-01T06:46:55.333Z,6.1
2015-12-01T06:47:55.273Z,6.1
2015-12-01T06:48:55.216Z,6.1
2015-12-01T06:49:55.155Z,6.1
2015-12-01T06:50:55.096Z,6.1
2015-12-01T06:51:55.052Z,6.1
2015-12-01T06:52:54.993Z,6.1
2015-12-01T06:53:54.949Z,6.1
2015-12-01T06:54:54.889Z,6.2
2015-12-01T06:55:54.827Z,6.1
2015-12-01T06:56:54.766Z,6.1
2015-12-01T06:57:54.706Z,6.1
2015-12-01T06:58:54.663Z,6.1
2015-12-01T06:59:54.602Z,6.1
2015-12-01T07:00:54.543Z,6.1
2015-12-01T07:01:54.483Z,6.1
2015-12-01T07:02:54.439Z,6.2
2015-12-01T07:03:54.379Z,6.2
2015-12-01T07:04:54.319Z,6.2
2015-12-01T07:05:54.260Z,6.2
2015-12-01T07:06:54.215Z,6.2
2015-12-01T07:07:54.157Z,6.2
2015-12-01T07:08:54.096Z,6.1
2015-12-01T07:09:54.037Z,6
2015-12-01T07:10:53.993Z,6
2015-12-01T07:11:53.933Z,6
2015-12-01T07:12:53.874Z,6
2015-12-01T07:13:53.829Z,6.1
2015-12-01T07:14:53.770Z,6.1
2015-12-01T07:15:53.711Z,6.1
2015-12-01T07:16:53.664Z,6.1
2015-12-01T07:17:53.603Z,6.1
2015-12-01T07:18:53.544Z,6.1
2015-12-01T07:19:53.484Z,6.1
2015-12-01T07:20:53.424Z,6.1
2015-12-01T07:21:53.382Z,6.1
2015-12-01T07:22:53.338Z,6.1
2015-12-01T07:23:53.263Z,6.1
2015-12-01T07:24:53.201Z,6
2015-12-01T07:25:53.141Z,6.1
2015-12-01T07:26:53.097Z,6.2
2015-12-01T07:27:53.037Z,6.2
2015-12-01T07:28:52.977Z,6.2
2015-12-01T07:29:52.932Z,6.2
2015-12-01T07:30:52.873Z,6.2
2015-12-01T07:31:52.813Z,6.2
2015-12-01T07:32:52.755Z,6.2
2015-12-01T07:33:52.694Z,6.2
2015-12-01T07:34:52.650Z,6.2
2015-12-01T07:35:52.591Z,6.2
2015-12-01T07:36:52.547Z,6.2
2015-12-01T07:37:52.487Z,6.1
2015-12-01T07:38:52.427Z,6.2
2015-12-01T07:39:52.367Z,6.2
2015-12-01T07:40:52.323Z,6.1
2015-12-01T07:41:52.263Z,6.1
2015-12-01T07:42:52.205Z,6.2
2015-12-01T07:43:52.142Z,6.2
2015-12-01T07:44:52.098Z,6.2
2015-12-01T07:45:52.039Z,6.1
2015-12-01T07:46:51.978Z,6.2
2015-12-01T07:47:51.919Z,6.1
2015-12-01T07:48:51.861Z,6.1
2015-12-01T07:49:51.817Z,6.2
2015-12-01T07:50:51.757Z,6.2
2015-12-01T07:51:51.697Z,6.2
2015-12-01T07:52:51.669Z,6.3
2015-12-01T07:53:51.591Z,6.3
2015-12-01T07:54:51.532Z,6.3
2015-12-01T07:55:51.488Z,6.3
2015-12-01T07:56:51.427Z,6.4
2015-12-01T07:57:51.368Z,6.4
2015-12-01T07:58:51.310Z,6.4
2015-12-01T07:59:51.266Z,6.7
2015-12-01T08:00:51.207Z,6.8
2015-12-01T08:01:51.147Z,6.8
2015-12-01T08:02:51.085Z,6.7
2015-12-01T08:03:51.040Z,6.7
2015-12-01T08:04:50.980Z,6.7
2015-12-01T08:05:50.921Z,6.6
2015-12-01T08:06:50.860Z,6.5
2015-12-01T08:07:50.802Z,6.4
2015-12-01T08:08:50.757Z,6.4
2015-12-01T08:09:50.698Z,6.4
2015-12-01T08:10:50.640Z,6.4
2015-12-01T08:11:50.578Z,6.4
2015-12-01T08:12:50.533Z,6.3
2015-12-01T08:13:50.473Z,6.4
2015-12-01T08:14:50.413Z,6.4
2015-12-01T08:15:50.369Z,6.3
2015-12-01T08:16:50.309Z,6.3
2015-12-01T08:17:50.251Z,6.2
2015-12-01T08:18:50.191Z,6.2
2015-12-01T08:19:50.131Z,6.3
2015-12-01T08:20:50.087Z,6.4
2015-12-01T08:21:50.027Z,6.3
2015-12-01T08:22:49.968Z,6.3
2015-12-01T08:23:49.907Z,6.3
2015-12-01T08:24:49.865Z,6.4
2015-12-01T08:25:49.804Z,6.4
2015-12-01T08:26:49.745Z,6.3
2015-12-01T08:27:49.682Z,6.4
2015-12-01T08:28:49.638Z,6.4
2015-12-01T08:29:49.579Z,6.7
2015-12-01T08:30:49.519Z,7
2015-12-01T08:31:49.461Z,7.1
2015-12-01T08:32:49.417Z,7.7
2015-12-01T08:33:49.357Z,8
2015-12-01T08:34:49.297Z,8.3
2015-12-01T08:35:49.253Z,9
2015-12-01T08:36:49.209Z,9.6
2015-12-01T08:37:49.134Z,9.9
2015-12-01T08:38:49.090Z,9.7
2015-12-01T08:39:49.031Z,10
2015-12-01T08:40:48.986Z,10.5
2015-12-01T08:41:48.926Z,10.3
2015-12-01T08:42:48.881Z,10.1
2015-12-01T08:43:48.822Z,10.2
2015-12-01T08:44:48.759Z,10.6
2015-12-01T08:45:48.715Z,10.7
2015-12-01T08:46:48.656Z,10.3
2015-12-01T08:47:48.612Z,10.6
2015-12-01T08:48:48.567Z,10.9
2015-12-01T08:49:48.508Z,10.8
2015-12-01T08:50:48.448Z,11.1
2015-12-01T08:51:48.403Z,11.2
2015-12-01T08:52:48.359Z,10.8
2015-12-01T08:53:48.299Z,10.7
2015-12-01T08:54:48.255Z,10.7
2015-12-01T08:55:48.195Z,10.4
2015-12-01T08:56:48.151Z,10.7
2015-12-01T08:57:48.092Z,10.1
2015-12-01T08:58:48.032Z,10.5
2015-12-01T08:59:47.987Z,10.8
2015-12-01T09:00:47.928Z,10.9
2015-12-01T09:01:47.883Z,11.5
2015-12-01T09:02:47.840Z,11.9
2015-12-01T09:03:47.779Z,11.7
2015-12-01T09:04:47.735Z,12.1
2015-12-01T09:05:47.676Z,12.1
2015-12-01T09:06:47.632Z,12.3
2015-12-01T09:07:47.572Z,11.6
2015-12-01T09:08:47.527Z,11.9
2015-12-01T09:09:47.471Z,12
2015-12-01T09:10:47.427Z,11.8
2015-12-01T09:11:47.367Z,12.1
2015-12-01T09:12:47.325Z,12.4
2015-12-01T09:13:47.265Z,12.7
2015-12-01T09:14:47.218Z,12.1
2015-12-01T09:15:47.159Z,11.6
2015-12-01T09:16:47.114Z,11.5
2015-12-01T09:17:47.054Z,11
2015-12-01T09:18:47.011Z,11.4
2015-12-01T09:19:46.950Z,11.4
2015-12-01T09:20:46.906Z,12
2015-12-01T09:21:46.847Z,12.3
2015-12-01T09:22:46.805Z,12.8
2015-12-01T09:23:46.745Z,13.1
2015-12-01T09:24:46.698Z,13.2
2015-12-01T09:25:46.639Z,13.3
2015-12-01T09:26:46.594Z,13.2
2015-12-01T09:27:46.535Z,13.3
2015-12-01T09:28:46.506Z,13.4
2015-12-01T09:29:46.430Z,13.6
2015-12-01T09:30:46.386Z,13.7
2015-12-01T09:31:46.344Z,13.7
2015-12-01T09:32:46.285Z,13.5
2015-12-01T09:33:46.238Z,13.8
2015-12-01T09:34:46.178Z,13.9
2015-12-01T09:35:46.134Z,14.2
2015-12-01T09:36:46.090Z,14.6
2015-12-01T09:37:46.030Z,14.4
2015-12-01T09:38:45.988Z,14.3
2015-12-01T09:39:45.928Z,14.2
2015-12-01T09:40:45.881Z,13.8
2015-12-01T09:41:45.837Z,14.3
2015-12-01T09:42:45.777Z,13.4
2015-12-01T09:43:45.734Z,14
2015-12-01T09:44:45.674Z,13.8
2015-12-01T09:45:45.631Z,14.4
2015-12-01T09:46:45.588Z,14.4
2015-12-01T09:47:45.527Z,14
2015-12-01T09:48:45.468Z,13.9
2015-12-01T09:49:45.421Z,14.1
2015-12-01T09:50:45.378Z,14
2015-12-01T09:51:45.317Z,13.9
2015-12-01T09:52:45.272Z,14.1
2015-12-01T09:53:45.213Z,14
2015-12-01T09:54:45.172Z,14.1
2015-12-01T09:55:45.112Z,13.4
2015-12-01T09:56:45.068Z,11.7
2015-12-01T09:57:45.005Z,11.4
2015-12-01T09:58:44.961Z,10.7
2015-12-01T09:59:44.916Z,10.3
2015-12-01T10:00:44.841Z,9.8
2015-12-01T10:01:44.797Z,9.6
2015-12-01T10:02:44.740Z,9.5
2015-12-01T10:03:44.695Z,9.7
2015-12-01T10:04:44.636Z,9.8
2015-12-01T10:05:44.573Z,10
2015-12-01T10:06:44.529Z,9.7
2015-12-01T10:07:44.470Z,9.7
2015-12-01T10:08:44.425Z,9.7
2015-12-01T10:09:44.365Z,9.9
2015-12-01T10:10:44.322Z,9.8
2015-12-01T10:11:44.262Z,10.4
2015-12-01T10:12:44.218Z,11.6
2015-12-01T10:13:44.159Z,12.5
2015-12-01T10:14:44.114Z,13
2015-12-01T10:15:44.054Z,12.9
2015-12-01T10:16:44.010Z,12.4
2015-12-01T10:17:43.951Z,13
2015-12-01T10:18:43.922Z,13.1
2015-12-01T10:19:43.847Z,12.8
2015-12-01T10:20:43.787Z,12.7
2015-12-01T10:21:43.743Z,13
2015-12-01T10:22:43.699Z,13.6
2015-12-01T10:23:43.640Z,13.7
2015-12-01T10:24:43.595Z,13.7
2015-12-01T10:25:43.535Z,13.4
2015-12-01T10:26:43.490Z,12.8
2015-12-01T10:27:43.431Z,12.4
2015-12-01T10:28:43.387Z,10.9
2015-12-01T10:29:43.328Z,9.9
2015-12-01T10:30:43.299Z,9.8
2015-12-01T10:31:43.223Z,9.9
2015-12-01T10:32:43.164Z,9.6
2015-12-01T10:33:43.120Z,9.5
2015-12-01T10:34:43.060Z,9.3
2015-12-01T10:35:43.001Z,9.2
2015-12-01T10:36:42.956Z,9.2
2015-12-01T10:37:42.896Z,9.1
2015-12-01T10:38:42.836Z,9.1
2015-12-01T10:39:42.793Z,8.9
2015-12-01T10:40:42.748Z,8.9
2015-12-01T10:41:42.670Z,9
2015-12-01T10:42:42.626Z,8.8
2015-12-01T10:43:42.566Z,8.7
2015-12-01T10:44:42.522Z,8.6
2015-12-01T10:45:42.462Z,8.8
2015-12-01T10:46:42.403Z,8.8
2015-12-01T10:47:42.359Z,8.6
2015-12-01T10:48:42.298Z,8.6
2015-12-01T10:49:42.255Z,8.6
2015-12-01T10:50:42.195Z,8.6
2015-12-01T10:51:42.135Z,8.5
2015-12-01T10:52:42.091Z,8.4
2015-12-01T10:53:42.031Z,8.6
2015-12-01T10:54:41.972Z,8.7
2015-12-01T10:55:41.928Z,8.7
2015-12-01T10:56:41.868Z,8.7
2015-12-01T10:57:41.808Z,8.7
2015-12-01T10:58:41.764Z,8.7
2015-12-01T10:59:41.704Z,8.8
2015-12-01T11:00:41.644Z,8.4
2015-12-01T11:01:41.585Z,8.3
2015-12-01T11:02:41.541Z,8.4
2015-12-01T11:03:41.481Z,8.6
2015-12-01T11:04:41.421Z,8.5
2015-12-01T11:05:41.377Z,8.4
2015-12-01T11:06:41.317Z,8.5
2015-12-01T11:07:41.257Z,8.5
2015-12-01T11:08:41.213Z,8.5
2015-12-01T11:09:41.152Z,8.6
2015-12-01T11:10:41.094Z,8.6
2015-12-01T11:11:41.050Z,8.6
2015-12-01T11:12:40.989Z,8.6
2015-12-01T11:13:40.930Z,8.5
2015-12-01T11:14:40.885Z,8.5
2015-12-01T11:15:40.827Z,8.6
2015-12-01T11:16:40.766Z,8.7
2015-12-01T11:17:40.722Z,8.6
2015-12-01T11:18:40.663Z,8.6
2015-12-01T11:19:40.602Z,8.6
2015-12-01T11:20:40.558Z,8.8
2015-12-01T11:21:40.498Z,9
2015-12-01T11:22:40.438Z,9
2015-12-01T11:23:40.394Z,9
2015-12-01T11:24:40.350Z,8.9
2015-12-01T11:25:40.291Z,8.9
2015-12-01T11:26:40.231Z,8.8
2015-12-01T11:27:40.168Z,8.9
2015-12-01T11:28:40.124Z,8.8
2015-12-01T11:29:40.065Z,8.7
2015-12-01T11:30:40.005Z,8.6
2015-12-01T11:31:39.960Z,8.6
2015-12-01T11:32:39.903Z,8.6
2015-12-01T11:33:39.859Z,8.6
2015-12-01T11:34:39.830Z,8.7
2015-12-01T11:35:39.739Z,8.7
2015-12-01T11:36:39.679Z,8.5
2015-12-01T11:37:39.636Z,8.5
2015-12-01T11:38:39.576Z,8.6
2015-12-01T11:39:39.514Z,8.5
2015-12-01T11:40:39.470Z,8.4
2015-12-01T11:41:39.410Z,8.5
2015-12-01T11:42:39.350Z,8.4
2015-12-01T11:43:39.305Z,8.5
2015-12-01T11:44:39.247Z,8.6
2015-12-01T11:45:39.188Z,8.4
2015-12-01T11:46:39.129Z,8.4
2015-12-01T11:47:39.085Z,8.4
2015-12-01T11:48:39.023Z,8.3
2015-12-01T11:49:38.977Z,8.4
2015-12-01T11:50:38.918Z,8.4
2015-12-01T11:51:38.858Z,8.4
2015-12-01T11:52:38.799Z,8.4
2015-12-01T11:53:38.757Z,8.3
2015-12-01T11:54:38.696Z,8.3
2015-12-01T11:55:38.684Z,8.4
2015-12-01T11:56:38.574Z,8.3
2015-12-01T11:57:38.530Z,8.3
2015-12-01T11:58:38.471Z,8.3
2015-12-01T11:59:38.412Z,8.4
2015-12-01T12:00:38.367Z,8.3
2015-12-01T12:01:38.308Z,8.3
2015-12-01T12:02:38.281Z,8.3
2015-12-01T12:03:38.207Z,8.3
2015-12-01T12:04:38.147Z,8.3
2015-12-01T12:05:38.100Z,8.4
2015-12-01T12:06:38.041Z,8.4
2015-12-01T12:07:37.980Z,8.4
2015-12-01T12:08:37.921Z,8.3
2015-12-01T12:09:37.877Z,8.3
2015-12-01T12:10:37.819Z,8.4
2015-12-01T12:11:37.759Z,8.4
2015-12-01T12:12:37.712Z,8.4
2015-12-01T12:13:37.652Z,8.4
2015-12-01T12:14:37.593Z,8.4
2015-12-01T12:15:37.549Z,8.4
2015-12-01T12:16:37.489Z,8.4
2015-12-01T12:17:37.432Z,8.5
2015-12-01T12:18:37.404Z,8.3
2015-12-01T12:19:37.326Z,8.4
2015-12-01T12:20:37.296Z,8.4
2015-12-01T12:21:37.206Z,8.4
2015-12-01T12:22:37.162Z,8.4
2015-12-01T12:23:37.101Z,8.3
2015-12-01T12:24:37.044Z,8.2
2015-12-01T12:25:37.000Z,8.2
2015-12-01T12:26:36.937Z,8.2
2015-12-01T12:27:36.878Z,8.3
2015-12-01T12:28:36.834Z,8.2
2015-12-01T12:29:36.774Z,8.3
2015-12-01T12:30:36.717Z,8.3
2015-12-01T12:31:36.672Z,8.4
2015-12-01T12:32:36.610Z,8.4
2015-12-01T12:33:36.550Z,8.4
2015-12-01T12:34:36.490Z,8.4
2015-12-01T12:35:36.430Z,8.4
2015-12-01T12:36:36.386Z,8.5
2015-12-01T12:37:36.344Z,8.6
2015-12-01T12:38:36.266Z,8.6
2015-12-01T12:39:36.222Z,8.6
2015-12-01T12:40:36.163Z,8.7
2015-12-01T12:41:36.119Z,8.7
2015-12-01T12:42:36.059Z,8.9
2015-12-01T12:43:35.999Z,8.8
2015-12-01T12:44:35.957Z,8.7
2015-12-01T12:45:35.898Z,8.7
2015-12-01T12:46:35.835Z,8.7
2015-12-01T12:47:35.790Z,8.6
2015-12-01T12:48:35.731Z,8.6
2015-12-01T12:49:35.671Z,8.7
2015-12-01T12:50:35.627Z,8.7
2015-12-01T12:51:35.567Z,8.7
2015-12-01T12:52:35.509Z,8.9
2015-12-01T12:53:35.466Z,8.8
2015-12-01T12:54:35.403Z,8.8
2015-12-01T12:55:35.359Z,8.8
2015-12-01T12:56:35.299Z,8.6
2015-12-01T12:57:35.240Z,8.6
2015-12-01T12:58:35.195Z,8.6
2015-12-01T12:59:35.138Z,8.5
2015-12-01T13:00:35.075Z,9
2015-12-01T13:01:35.031Z,9.1
2015-12-01T13:02:34.972Z,9.4
2015-12-01T13:03:34.912Z,9.2
2015-12-01T13:04:34.869Z,9.1
2015-12-01T13:05:34.808Z,9.1
2015-12-01T13:06:34.751Z,9
2015-12-01T13:07:34.722Z,9.2
2015-12-01T13:08:34.644Z,9.4
2015-12-01T13:09:34.600Z,9.5
2015-12-01T13:10:34.540Z,9.8
2015-12-01T13:11:34.480Z,9.9
2015-12-01T13:12:34.436Z,9.7
2015-12-01T13:13:34.379Z,9.5
2015-12-01T13:14:34.335Z,9.5
2015-12-01T13:15:34.273Z,9.3
2015-12-01T13:16:34.213Z,9.4
2015-12-01T13:17:34.168Z,9.2
2015-12-01T13:18:34.109Z,9
2015-12-01T13:19:34.051Z,9.1
2015-12-01T13:20:34.007Z,8.8
2015-12-01T13:21:33.945Z,8.8
2015-12-01T13:22:33.885Z,8.7
2015-12-01T13:23:33.826Z,8.7
2015-12-01T13:24:33.781Z,8.7
2015-12-01T13:25:33.721Z,8.8
2015-12-01T13:26:33.680Z,8.8
2015-12-01T13:27:33.620Z,8.8
2015-12-01T13:28:33.573Z,8.8
2015-12-01T13:29:33.513Z,8.8
2015-12-01T13:30:33.453Z,8.7
2015-12-01T13:31:33.409Z,8.6
2015-12-01T13:32:33.352Z,8.6
2015-12-01T13:33:33.292Z,8.5
2015-12-01T13:34:33.245Z,8.5
2015-12-01T13:35:33.186Z,8.5
2015-12-01T13:36:33.126Z,8.4
2015-12-01T13:37:33.066Z,8.4
2015-12-01T13:38:33.022Z,8.4
2015-12-01T13:39:32.965Z,8.4
2015-12-01T13:40:32.920Z,8.4
2015-12-01T13:41:32.857Z,8.3
2015-12-01T13:42:32.798Z,8.4